Danville, CA (94506)

6:24 PM PDT on September 19, 2014 (GMT -0700)
FSTC - San Ramon | Change Station
CLOSE
Current Station
Personal Weather Station
Location: San Ramon, CA
Elevation: 468 ft
Nearby Weather Stations

Elev 468 ft 37.78 °N, 121.97 °W | Updated 9 minutes ago

Clear
Clear
75.2 °F
Feels Like 77 °F
N
3.0
Wind Variable Wind from West
Gusts 12.0 mph

Today
High -- | Low -- °F
--% Chance of Precip.
Yesterday
High -- | Low -- °F
Precip. -- in
6:53 AM 7:09 PM
Waning Crescent, 15% visible
Pressure 29.83 in
Visibility 10.0 miles
Clouds Clear
Heat Index 77 °F
Dew Point 60 °F
Humidity 60%
Rainfall 0.00 in
Snow Depth 0 in , 0 in , 0 in
UV 0.0 out of 12
Pollen 4.70 out of 12
Ozone Good
PM2.5 Good
Flu Activity Not available.
METAR KLVK 200053Z 27013KT 10SM CLR 25/14 A2983 RMK AO2 SLP099 T02500144

More Conditions Fewer Conditions

Pressure 29.83 in
Visibility 10.0 miles
Clouds Clear
Heat Index 77 °F
Dew Point 60 °F
Humidity 60%
Rainfall 0.00 in
Snow Depth 0 in , 0 in , 0 in
UV 0.0 out of 12
Pollen 4.70 out of 12
Ozone Good
PM2.5 Good
Flu Activity Not available.
METAR KLVK 200053Z 27013KT 10SM CLR 25/14 A2983 RMK AO2 SLP099 T02500144

More Conditions Fewer Conditions

10-Day Weather Forecast

Almanac

Astronomy

Sep. 19, 2014 Rise Set
Actual Time 6:53 AM PDT 7:09 PM PDT
Civil Twilight 6:26 AM PDT 7:35 PM PDT
Nautical Twilight 5:56 AM PDT 8:06 PM PDT
Astronomical Twilight 5:24 AM PDT 8:37 PM PDT
Moon 2:46 AM PDT (9/19) 4:38 PM PDT (9/19)
Length of Visible Light 13h 08m
Length of Day
12h 16m
Tomorrow will be 2m 25s shorter.
Waning Crescent, 15% of the Moon is Illuminated
Today
Waning Crescent
Sep 24
New
Oct 1
First Quarter
Oct 8
Full
Oct 15
Last Quarter

Today's Extremes

State Highs State Lows

Community

WunderPhotos

Upload Photos

1,754,757 photos uploaded!

WunderBlogs® & News

Nearby

Air Quality

  Air Quality AQ Index Pollutant
Yesterday Good
OZONE
Yesterday Good
PM2.5
Current Good
PM2.5
Current Good
OZONE
Friday Good
OZONE
Saturday Moderate
PM2.5
Sunday Moderate
PM2.5
Monday Good
OZONE
Tuesday Good
OZONE
Wednesday Moderate
OZONE

Snow Depth

Station Depth Elevation
Burnside Lake 0 in 8139 ft
Rubicon #2 0 in 7500 ft
Ward Creek #3 0 in 6750 ft
Leavitt Lake 0 in 9400 ft
Adin Mountain 1 in 6200 ft

Earthquake Activity

City Distance Mag. Time & Date
Livermore, California 14 miles 2.6 3:37 AM PDT
2014-09-19
The Geysers, California 77 miles 2.5 11:29 PM PDT
2014-09-17
Cobb, California 79 miles 2.7 1:23 PM PDT
2014-09-16
Minimum magnitude displayed is 2.5.

Coastal Water Temperatures

Place Temperature
No Stations Reporting

Nearby Weather Stations